createdAt,value
2022-11-06T00:00:43.180Z,66.26
2022-11-06T00:03:10.132Z,66.33
2022-11-06T00:06:02.937Z,66.67
2022-11-06T00:08:36.448Z,66.37
2022-11-06T00:11:08.932Z,67.59
2022-11-06T00:13:35.981Z,67.05
2022-11-06T00:16:06.154Z,67.26
2022-11-06T00:18:33.729Z,67.80
2022-11-06T00:21:22.729Z,67.86
2022-11-06T00:23:50.722Z,66.91
2022-11-06T00:26:18.951Z,67.87
2022-11-06T00:28:58.451Z,68.53
2022-11-06T00:31:26.883Z,66.72
2022-11-06T00:33:54.352Z,66.25
2022-11-06T00:36:23.183Z,67.21
2022-11-06T00:38:56.173Z,67.02
2022-11-06T00:41:24.314Z,65.91
2022-11-06T00:43:52.265Z,68.17
2022-11-06T00:46:20.337Z,66.16
2022-11-06T00:48:48.104Z,66.77
2022-11-06T00:51:16.845Z,66.76
2022-11-06T00:53:44.497Z,64.11
2022-11-06T00:56:16.192Z,65.01
2022-11-06T00:58:43.371Z,63.41
2022-11-06T01:01:11.932Z,66.17
2022-11-06T01:03:39.474Z,64.76
2022-11-06T01:06:10.687Z,66.67
2022-11-06T01:08:38.720Z,66.82
2022-11-06T01:11:10.131Z,65.83
2022-11-06T01:13:38.012Z,66.40
2022-11-06T01:16:11.751Z,66.59
2022-11-06T01:18:39.313Z,66.07
2022-11-06T01:21:10.642Z,65.16
2022-11-06T01:23:40.053Z,64.84
2022-11-06T01:26:11.394Z,66.48
2022-11-06T01:28:44.589Z,64.90
2022-11-06T01:31:12.732Z,68.71
2022-11-06T01:33:42.332Z,66.18
2022-11-06T01:36:10.245Z,66.55
2022-11-06T01:38:36.982Z,66.00
2022-11-06T01:41:05.194Z,65.82
2022-11-06T01:43:50.554Z,63.62
2022-11-06T01:46:19.241Z,63.16
2022-11-06T01:48:48.099Z,62.92
2022-11-06T01:51:17.692Z,64.68
2022-11-06T01:53:44.913Z,63.37
2022-11-06T01:56:13.314Z,63.31
2022-11-06T01:58:42.808Z,64.59
2022-11-06T02:01:10.572Z,65.67
2022-11-06T02:03:43.451Z,65.75
2022-11-06T02:06:11.010Z,64.51
2022-11-06T02:08:37.831Z,66.11
2022-11-06T02:11:04.643Z,64.70
2022-11-06T02:13:52.563Z,66.87
2022-11-06T02:16:27.264Z,68.61
2022-11-06T02:19:22.801Z,67.12
2022-11-06T02:22:00.241Z,65.74
2022-11-06T02:24:44.863Z,66.42
2022-11-06T02:27:23.172Z,65.55
2022-11-06T02:29:55.932Z,67.23
2022-11-06T02:32:38.886Z,66.29
2022-11-06T02:35:16.477Z,66.66
2022-11-06T02:37:47.910Z,65.04
2022-11-06T02:40:21.413Z,64.67
2022-11-06T02:42:51.173Z,66.24
2022-11-06T02:45:22.220Z,66.63
2022-11-06T02:47:50.913Z,66.44
2022-11-06T02:50:21.562Z,65.41
2022-11-06T02:52:50.350Z,66.51
2022-11-06T02:55:36.311Z,66.65
2022-11-06T02:58:26.162Z,64.88
2022-11-06T03:01:04.811Z,65.83
2022-11-06T03:03:33.422Z,64.49
2022-11-06T03:06:07.494Z,64.91
2022-11-06T03:08:39.102Z,65.79
2022-11-06T03:11:07.442Z,65.17
2022-11-06T03:13:42.370Z,65.32
2022-11-06T03:26:47.028Z,66.11
2022-11-06T03:31:13.032Z,67.71
2022-11-06T03:39:05.902Z,66.65
2022-11-06T03:45:46.930Z,68.56
2022-11-06T03:57:59.331Z,65.89
2022-11-06T04:00:26.582Z,66.32
2022-11-06T04:03:09.449Z,66.00
2022-11-06T04:05:38.479Z,66.61
2022-11-06T04:08:24.502Z,66.31
2022-11-06T04:11:11.084Z,69.81
2022-11-06T04:14:03.211Z,67.99
2022-11-06T04:16:41.062Z,69.40
2022-11-06T04:19:16.772Z,70.09
2022-11-06T04:21:50.062Z,69.15
2022-11-06T04:24:54.743Z,69.81
2022-11-06T04:27:47.521Z,68.01
2022-11-06T04:30:20.821Z,69.93
2022-11-06T04:32:54.604Z,70.03
2022-11-06T04:35:28.780Z,70.38
2022-11-06T04:38:01.334Z,70.56
2022-11-06T04:40:51.203Z,70.24
2022-11-06T04:43:33.222Z,70.31
2022-11-06T04:46:12.874Z,70.50
2022-11-06T04:48:41.612Z,70.95
2022-11-06T04:51:09.632Z,70.64
2022-11-06T04:53:38.082Z,69.95
2022-11-06T04:56:10.482Z,71.39
2022-11-06T04:58:37.310Z,69.80
2022-11-06T05:01:04.590Z,68.80
2022-11-06T05:03:31.423Z,68.59
2022-11-06T05:05:58.588Z,69.74
2022-11-06T05:08:25.380Z,68.82
2022-11-06T05:10:55.080Z,69.85
2022-11-06T05:13:22.051Z,68.96
2022-11-06T05:15:48.947Z,68.25
2022-11-06T05:18:15.992Z,67.15
2022-11-06T05:20:43.082Z,68.79
2022-11-06T05:23:09.918Z,69.21
2022-11-06T05:25:38.633Z,67.81
2022-11-06T05:28:08.112Z,68.90
2022-11-06T05:30:37.873Z,67.12
2022-11-06T05:33:07.741Z,66.71
2022-11-06T05:35:34.629Z,67.99
2022-11-06T05:38:04.714Z,67.02
2022-11-06T05:40:31.675Z,65.68
2022-11-06T05:42:58.712Z,66.66
2022-11-06T05:45:26.273Z,68.01
2022-11-06T05:47:53.039Z,67.50
2022-11-06T05:50:20.062Z,66.43
2022-11-06T05:52:46.924Z,66.28
2022-11-06T05:55:15.323Z,66.72
2022-11-06T05:57:42.840Z,64.83
2022-11-06T06:00:13.688Z,63.65
2022-11-06T06:02:41.090Z,62.95
2022-11-06T06:05:13.111Z,66.23
2022-11-06T06:07:39.835Z,64.53
2022-11-06T06:10:07.571Z,64.13
2022-11-06T06:12:39.676Z,64.47
2022-11-06T06:15:07.313Z,65.76
2022-11-06T06:17:34.167Z,64.40
2022-11-06T06:20:01.504Z,63.72
2022-11-06T06:22:28.312Z,63.97
2022-11-06T06:24:55.196Z,66.17
2022-11-06T06:27:21.998Z,65.25
2022-11-06T06:29:49.211Z,65.71
2022-11-06T06:32:16.224Z,66.84
2022-11-06T06:34:43.151Z,68.68
2022-11-06T06:37:10.036Z,68.71
2022-11-06T06:39:37.273Z,66.44
2022-11-06T06:42:07.622Z,67.28
2022-11-06T06:44:36.715Z,65.11
2022-11-06T06:47:04.923Z,66.37
2022-11-06T06:49:32.803Z,66.80
2022-11-06T06:51:59.563Z,64.78
2022-11-06T06:54:26.335Z,65.15
2022-11-06T06:56:53.166Z,66.08
2022-11-06T06:59:20.004Z,67.89
2022-11-06T07:01:47.158Z,66.77
2022-11-06T07:04:16.077Z,65.57
2022-11-06T07:06:42.981Z,68.67
2022-11-06T07:09:09.714Z,65.12
2022-11-06T07:11:38.211Z,63.71
2022-11-06T07:14:06.262Z,65.01
2022-11-06T07:19:29.607Z,64.12
2022-11-06T07:22:02.292Z,65.23
2022-11-06T07:24:32.783Z,66.09
2022-11-06T07:30:02.569Z,64.94
2022-11-06T07:32:33.646Z,65.47
2022-11-06T07:38:10.856Z,65.74
2022-11-06T07:40:37.914Z,67.60
2022-11-06T07:43:05.385Z,66.94
2022-11-06T07:45:32.153Z,65.38
2022-11-06T07:48:10.676Z,65.00
2022-11-06T07:50:38.925Z,65.65
2022-11-06T07:53:05.682Z,65.81
2022-11-06T07:55:33.881Z,66.00
2022-11-06T07:58:02.255Z,66.01
2022-11-06T08:00:29.261Z,66.46
2022-11-06T08:02:56.767Z,67.13
2022-11-06T08:05:24.754Z,64.19
2022-11-06T08:07:56.554Z,64.62
2022-11-06T08:10:23.303Z,63.73
2022-11-06T08:12:50.153Z,66.22
2022-11-06T08:15:24.163Z,65.37
2022-11-06T08:17:51.034Z,65.40
2022-11-06T08:20:18.843Z,64.38
2022-11-06T08:22:45.642Z,64.81
2022-11-06T08:25:12.792Z,65.43
2022-11-06T08:27:39.805Z,66.44
2022-11-06T08:30:06.921Z,66.47
2022-11-06T08:32:34.908Z,65.39
2022-11-06T08:35:01.756Z,66.07
2022-11-06T08:37:29.920Z,66.62
2022-11-06T08:39:59.479Z,66.17
2022-11-06T08:42:27.013Z,66.57
2022-11-06T08:44:53.837Z,66.86
2022-11-06T08:47:22.352Z,66.35
2022-11-06T08:49:49.621Z,65.62
2022-11-06T08:52:19.143Z,64.86
2022-11-06T08:54:46.072Z,66.13
2022-11-06T08:57:12.857Z,65.88
2022-11-06T08:59:39.761Z,65.34
2022-11-06T09:02:11.386Z,65.73
2022-11-06T09:04:41.509Z,64.83
2022-11-06T09:07:11.623Z,64.14
2022-11-06T09:09:39.791Z,64.04
2022-11-06T09:16:04.036Z,65.10
2022-11-06T09:19:17.140Z,64.61
2022-11-06T09:28:47.416Z,66.48
2022-11-06T09:34:37.885Z,66.30
2022-11-06T09:37:05.188Z,67.02
2022-11-06T09:39:33.447Z,67.98
2022-11-06T09:42:24.854Z,67.17
2022-11-06T09:44:55.197Z,67.11
2022-11-06T09:47:27.393Z,66.68
2022-11-06T09:49:55.849Z,66.48
2022-11-06T09:52:25.442Z,65.29
2022-11-06T09:55:03.302Z,64.04
2022-11-06T09:57:44.243Z,63.61
2022-11-06T10:00:14.891Z,63.43
2022-11-06T10:02:58.669Z,63.65
2022-11-06T10:05:33.334Z,62.02
2022-11-06T10:08:04.704Z,62.97
2022-11-06T10:10:42.461Z,61.25
2022-11-06T10:13:22.955Z,61.35
2022-11-06T10:15:54.995Z,62.61
2022-11-06T10:18:26.315Z,63.45
2022-11-06T10:21:02.521Z,63.44
2022-11-06T10:23:39.503Z,63.69
2022-11-06T10:33:18.063Z,65.06
2022-11-06T10:48:30.507Z,63.10
2022-11-06T10:50:59.325Z,63.23
2022-11-06T10:54:06.234Z,61.98
2022-11-06T10:56:35.662Z,61.38
2022-11-06T10:59:02.963Z,61.84
2022-11-06T11:01:30.329Z,61.34
2022-11-06T11:03:57.540Z,61.21
2022-11-06T11:06:24.488Z,60.76
2022-11-06T11:08:52.901Z,63.18
2022-11-06T11:11:25.034Z,62.06
2022-11-06T11:14:01.490Z,61.99
2022-11-06T11:16:54.654Z,62.28
2022-11-06T11:19:26.106Z,61.51
2022-11-06T11:21:58.426Z,61.29
2022-11-06T11:24:25.838Z,60.66
2022-11-06T11:26:54.453Z,60.23
2022-11-06T11:29:26.323Z,61.66
2022-11-06T11:32:13.005Z,61.38
2022-11-06T11:34:50.227Z,62.22
2022-11-06T11:37:37.203Z,61.28
2022-11-06T11:40:23.036Z,60.55
2022-11-06T11:42:49.866Z,61.63
2022-11-06T11:45:26.246Z,59.02
2022-11-06T11:47:53.122Z,60.42
2022-11-06T11:50:27.483Z,61.16
2022-11-06T11:55:47.260Z,59.30
2022-11-06T11:58:23.464Z,58.34
2022-11-06T12:00:59.909Z,60.64
2022-11-06T12:03:34.714Z,61.03
2022-11-06T12:06:07.662Z,59.97
2022-11-06T12:08:36.826Z,59.66
2022-11-06T12:11:04.801Z,59.18
2022-11-06T12:13:32.595Z,59.67
2022-11-06T12:16:04.858Z,58.90
2022-11-06T12:18:34.902Z,60.81
2022-11-06T12:21:08.783Z,58.43
2022-11-06T12:23:52.919Z,57.50
2022-11-06T12:26:35.213Z,57.71
2022-11-06T12:29:14.561Z,58.06
2022-11-06T12:31:48.001Z,57.47
2022-11-06T12:34:28.944Z,58.19
2022-11-06T12:37:09.201Z,57.40
2022-11-06T12:39:39.841Z,59.22
2022-11-06T12:42:09.683Z,57.90
2022-11-06T12:44:42.842Z,60.31
2022-11-06T12:47:30.122Z,60.03
2022-11-06T12:50:15.651Z,58.03
2022-11-06T12:52:47.771Z,58.21
2022-11-06T12:55:26.101Z,58.89
2022-11-06T12:58:12.416Z,56.86
2022-11-06T13:00:56.695Z,58.36
2022-11-06T13:03:48.974Z,60.11
2022-11-06T13:06:30.500Z,59.37
2022-11-06T13:09:19.992Z,60.44
2022-11-06T13:12:02.919Z,57.36
2022-11-06T13:14:52.695Z,58.49
2022-11-06T13:17:39.644Z,58.38
2022-11-06T13:20:15.581Z,58.62
2022-11-06T13:23:00.040Z,57.88
2022-11-06T13:25:31.170Z,57.34
2022-11-06T13:28:39.334Z,56.49
2022-11-06T13:31:08.619Z,57.56
2022-11-06T13:33:50.931Z,57.39
2022-11-06T13:36:19.790Z,57.28
2022-11-06T13:39:06.752Z,56.89
2022-11-06T13:41:34.213Z,58.80
2022-11-06T13:44:02.004Z,58.38
2022-11-06T13:46:58.241Z,58.34
2022-11-06T13:49:43.852Z,60.56
2022-11-06T13:52:17.343Z,58.22
2022-11-06T13:54:55.654Z,57.38
2022-11-06T13:57:32.650Z,59.18
2022-11-06T14:00:18.323Z,58.90
2022-11-06T14:02:57.269Z,59.66
2022-11-06T14:05:45.202Z,60.00
2022-11-06T14:08:17.341Z,59.29
2022-11-06T14:10:53.071Z,59.84
2022-11-06T14:13:24.934Z,60.33
2022-11-06T14:19:02.872Z,61.22
2022-11-06T14:27:51.401Z,58.05
2022-11-06T14:31:10.914Z,59.32
2022-11-06T14:33:54.740Z,58.75
2022-11-06T14:39:48.365Z,58.78
2022-11-06T14:46:22.308Z,57.63
2022-11-06T14:49:08.543Z,57.19
2022-11-06T14:57:37.963Z,60.54
2022-11-06T15:00:14.191Z,58.97
2022-11-06T15:02:41.912Z,58.38
2022-11-06T15:05:15.161Z,57.68
2022-11-06T15:10:52.704Z,57.64
2022-11-06T15:13:24.372Z,57.30
2022-11-06T15:16:04.345Z,55.71
2022-11-06T15:18:35.949Z,55.65
2022-11-06T15:21:05.352Z,55.53
2022-11-06T15:23:35.102Z,56.87
2022-11-06T15:26:23.558Z,56.21
2022-11-06T15:29:09.345Z,57.47
2022-11-06T15:31:37.091Z,56.39
2022-11-06T15:34:06.843Z,55.97
2022-11-06T15:36:37.889Z,55.54
2022-11-06T15:39:24.641Z,55.47
2022-11-06T15:41:53.284Z,56.48
2022-11-06T15:44:22.575Z,55.58
2022-11-06T15:47:02.255Z,55.24
2022-11-06T15:49:29.753Z,55.10
2022-11-06T15:52:00.304Z,55.69
2022-11-06T15:54:44.389Z,55.71
2022-11-06T15:57:23.005Z,55.35
2022-11-06T15:59:50.273Z,55.10
2022-11-06T16:02:20.686Z,55.35
2022-11-06T16:04:48.871Z,55.52
2022-11-06T16:07:16.691Z,55.92
2022-11-06T16:09:44.176Z,55.41
2022-11-06T16:12:12.933Z,55.07
2022-11-06T16:14:41.103Z,55.88
2022-11-06T16:17:23.421Z,56.04
2022-11-06T16:19:58.786Z,55.79
2022-11-06T16:22:33.632Z,55.69
2022-11-06T16:25:06.028Z,55.63
2022-11-06T16:27:36.902Z,55.58
2022-11-06T16:30:06.714Z,55.22
2022-11-06T16:32:39.103Z,55.76
2022-11-06T16:35:26.043Z,55.80
2022-11-06T16:38:07.591Z,55.14
2022-11-06T16:40:47.679Z,55.09
2022-11-06T16:43:16.941Z,55.21
2022-11-06T16:45:54.677Z,55.15
2022-11-06T16:48:35.850Z,55.16
2022-11-06T16:51:07.393Z,55.10
2022-11-06T16:53:47.630Z,55.25
2022-11-06T16:56:17.353Z,55.38
2022-11-06T16:58:51.006Z,55.35
2022-11-06T17:01:21.540Z,55.32
2022-11-06T17:04:08.203Z,55.13
2022-11-06T17:06:36.015Z,55.62
2022-11-06T17:09:21.707Z,55.11
2022-11-06T17:11:55.097Z,55.11
2022-11-06T17:14:22.994Z,55.23
2022-11-06T17:16:51.744Z,56.50
2022-11-06T17:19:19.978Z,56.68
2022-11-06T17:21:47.129Z,57.72
2022-11-06T17:27:02.874Z,60.10
2022-11-06T17:29:29.794Z,59.96
2022-11-06T17:31:58.483Z,60.69
2022-11-06T17:34:25.439Z,61.50
2022-11-06T17:36:52.254Z,61.72
2022-11-06T17:39:20.350Z,61.61
2022-11-06T17:41:47.221Z,60.28
2022-11-06T17:44:15.347Z,59.54
2022-11-06T17:46:43.681Z,59.33
2022-11-06T17:49:17.082Z,61.46
2022-11-06T17:52:17.529Z,64.28
2022-11-06T17:54:44.739Z,63.60
2022-11-06T17:57:17.422Z,65.52
2022-11-06T17:59:48.143Z,67.44
2022-11-06T18:02:29.728Z,70.56
2022-11-06T18:05:04.319Z,67.92
2022-11-06T18:07:31.467Z,67.46
2022-11-06T18:09:58.250Z,68.44
2022-11-06T18:12:31.001Z,67.56
2022-11-06T18:15:03.672Z,66.29
2022-11-06T18:17:37.285Z,65.98
2022-11-06T18:20:05.837Z,64.72
2022-11-06T18:22:32.822Z,64.12
2022-11-06T18:24:59.612Z,63.10
2022-11-06T18:27:26.885Z,62.61
2022-11-06T18:29:54.143Z,62.01
2022-11-06T18:32:20.942Z,61.74
2022-11-06T18:34:47.788Z,61.23
2022-11-06T18:37:14.601Z,62.85
2022-11-06T18:39:41.556Z,63.67
2022-11-06T18:42:08.312Z,63.75
2022-11-06T18:44:37.683Z,62.78
2022-11-06T18:47:04.513Z,62.21
2022-11-06T18:49:32.682Z,62.15
2022-11-06T18:51:59.962Z,61.51
2022-11-06T18:54:29.621Z,61.24
2022-11-06T18:56:56.544Z,60.47
2022-11-06T18:59:24.481Z,60.24
2022-11-06T19:01:52.101Z,60.88
2022-11-06T19:04:19.504Z,60.77
2022-11-06T19:06:46.490Z,61.44
2022-11-06T19:09:13.755Z,60.83
2022-11-06T19:14:07.786Z,61.25
2022-11-06T19:16:36.343Z,62.67
2022-11-06T19:19:05.938Z,62.48
2022-11-06T19:21:33.455Z,62.57
2022-11-06T19:24:05.177Z,62.18
2022-11-06T19:26:33.748Z,61.58
2022-11-06T19:29:03.023Z,61.59
2022-11-06T19:31:30.575Z,61.29
2022-11-06T19:34:02.610Z,61.20
2022-11-06T19:36:29.503Z,61.78
2022-11-06T19:38:58.717Z,61.79
2022-11-06T19:41:26.874Z,62.20
2022-11-06T19:43:53.793Z,62.20
2022-11-06T19:46:25.067Z,62.05
2022-11-06T19:48:54.521Z,63.68
2022-11-06T19:51:21.432Z,62.96
2022-11-06T19:53:51.682Z,62.57
2022-11-06T19:56:19.118Z,65.66
2022-11-06T19:58:45.963Z,64.60
2022-11-06T20:01:15.135Z,66.26
2022-11-06T20:03:43.924Z,64.93
2022-11-06T20:06:11.159Z,64.44
2022-11-06T20:08:39.813Z,63.63
2022-11-06T20:11:10.102Z,64.24
2022-11-06T20:13:37.051Z,64.47
2022-11-06T20:16:04.719Z,64.43
2022-11-06T20:18:32.191Z,64.01
2022-11-06T20:21:03.846Z,63.73
2022-11-06T20:23:32.100Z,63.62
2022-11-06T20:25:58.971Z,66.11
2022-11-06T20:28:25.862Z,65.25
2022-11-06T20:30:52.822Z,68.21
2022-11-06T20:33:19.771Z,68.06
2022-11-06T20:35:46.732Z,67.94
2022-11-06T20:38:14.729Z,68.02
2022-11-06T20:40:41.914Z,69.65
2022-11-06T20:43:09.232Z,69.20
2022-11-06T20:45:37.961Z,68.29
2022-11-06T20:48:05.461Z,68.03
2022-11-06T20:50:33.793Z,67.48
2022-11-06T20:53:00.765Z,67.46
2022-11-06T20:55:27.830Z,67.13
2022-11-06T20:57:54.602Z,66.86
2022-11-06T21:00:21.643Z,66.67
2022-11-06T21:02:48.731Z,66.57
2022-11-06T21:05:15.580Z,65.99
2022-11-06T21:07:45.280Z,66.25
2022-11-06T21:10:12.462Z,65.73
2022-11-06T21:12:39.573Z,67.35
2022-11-06T21:15:07.372Z,70.24
2022-11-06T21:17:35.066Z,67.96
2022-11-06T21:20:03.073Z,68.16
2022-11-06T21:22:29.949Z,69.18
2022-11-06T21:24:56.799Z,67.56
2022-11-06T21:27:23.572Z,67.17
2022-11-06T21:29:50.284Z,68.79
2022-11-06T21:32:17.071Z,67.22
2022-11-06T21:34:43.752Z,69.63
2022-11-06T21:37:11.532Z,68.92
2022-11-06T21:39:39.529Z,69.08
2022-11-06T21:42:07.931Z,69.48
2022-11-06T21:44:34.671Z,68.84
2022-11-06T21:47:02.451Z,68.81
2022-11-06T21:49:29.432Z,68.00
2022-11-06T21:52:16.082Z,69.71
2022-11-06T21:55:01.225Z,68.73
2022-11-06T21:57:30.292Z,67.63
2022-11-06T21:59:57.640Z,67.05
2022-11-06T22:02:24.534Z,66.60
2022-11-06T22:04:51.414Z,67.80
2022-11-06T22:07:18.082Z,70.59
2022-11-06T22:09:44.781Z,70.15
2022-11-06T22:12:11.571Z,68.93
2022-11-06T22:14:38.293Z,69.33
2022-11-06T22:17:05.253Z,67.63
2022-11-06T22:19:32.222Z,67.36
2022-11-06T22:21:59.138Z,68.82
2022-11-06T22:24:25.929Z,67.08
2022-11-06T22:26:54.652Z,66.49
2022-11-06T22:29:21.541Z,66.40
2022-11-06T22:31:48.873Z,65.57
2022-11-06T22:34:15.661Z,65.09
2022-11-06T22:36:42.545Z,64.85
2022-11-06T22:39:10.058Z,64.93
2022-11-06T22:41:37.651Z,65.28
2022-11-06T22:44:06.298Z,65.29
2022-11-06T22:46:34.034Z,65.35
2022-11-06T22:49:01.731Z,64.79
2022-11-06T22:51:29.693Z,65.28
2022-11-06T22:53:57.305Z,64.66
2022-11-06T22:56:24.764Z,64.20
2022-11-06T22:58:55.141Z,64.48
2022-11-06T23:01:25.979Z,64.74
2022-11-06T23:03:57.932Z,64.62
2022-11-06T23:06:25.569Z,64.26
2022-11-06T23:08:52.805Z,63.87
2022-11-06T23:11:19.702Z,64.42
2022-11-06T23:13:46.705Z,63.50
2022-11-06T23:16:16.003Z,63.69
2022-11-06T23:18:42.773Z,64.03
2022-11-06T23:21:18.193Z,64.79
2022-11-06T23:23:45.431Z,66.08
2022-11-06T23:26:17.906Z,66.97
2022-11-06T23:28:45.261Z,67.83
2022-11-06T23:31:12.668Z,67.03
2022-11-06T23:33:39.640Z,67.39
2022-11-06T23:36:07.141Z,66.99
2022-11-06T23:38:33.941Z,68.59
2022-11-06T23:41:35.233Z,68.40
2022-11-06T23:44:02.748Z,69.04
2022-11-06T23:46:33.802Z,69.23
2022-11-06T23:49:00.513Z,69.02
2022-11-06T23:51:27.736Z,69.62
2022-11-06T23:53:56.872Z,69.59
2022-11-06T23:56:23.542Z,68.97
2022-11-06T23:58:50.259Z,68.60
